Time;durP1;ratioP1;P1;durP2;ratioP2;P2;SDS_P1;SDS_P2;PMS_P1;PMS_P2;Temp;Humidity;BMP_temperature;BMP_pressure;BME280_temperature;BME280_humidity;BME280_pressure;Samples;Min_cycle;Max_cycle;Signal;HPM_P1;HPM_P2
2021/04/13 00:01:24;;;;;;;42.20;32.70;;;;;;;9.50;61.74;100711.55;1648082;85;21110;-84
2021/04/13 00:04:14;;;;;;;36.30;29.60;;;;;;;9.52;62.03;100726.83;1646542;87;21179;-84
2021/04/13 00:06:52;;;;;;;37.43;30.30;;;;;;;9.54;62.20;100724.01;1648052;85;21233;-84
2021/04/13 00:09:28;;;;;;;33.87;28.40;;;;;;;9.56;61.90;100722.00;1649773;85;21333;-85
2021/04/13 00:12:12;;;;;;;35.40;31.37;;;;;;;9.53;62.04;100720.52;1653051;85;21669;-85
2021/04/13 00:14:48;;;;;;;33.53;29.87;;;;;;;9.53;62.15;100723.66;1643410;86;21603;-84
2021/04/13 00:17:20;;;;;;;36.20;30.97;;;;;;;9.53;62.09;100725.00;1656790;85;21331;-86
2021/04/13 00:19:59;;;;;;;36.43;31.27;;;;;;;9.55;62.09;100729.16;1677166;85;21180;-83
2021/04/13 00:22:28;;;;;;;36.00;29.83;;;;;;;9.57;62.16;100726.81;1672909;84;21035;-85
2021/04/13 00:24:57;;;;;;;41.70;30.77;;;;;;;9.52;62.33;100725.50;1623655;86;21222;-85
2021/04/13 00:27:26;;;;;;;35.63;30.17;;;;;;;9.46;62.57;100728.86;1626539;87;21337;-86
2021/04/13 00:30:08;;;;;;;34.53;28.60;;;;;;;9.52;62.38;100731.34;1654139;85;21197;-85
2021/04/13 00:32:38;;;;;;;36.03;32.27;;;;;;;9.53;62.33;100733.83;1649365;85;21282;-84
2021/04/13 00:35:27;;;;;;;36.03;29.40;;;;;;;9.47;62.38;100734.49;1686372;84;21286;-85
2021/04/13 00:37:45;;;;;;;34.23;29.17;;;;;;;9.42;62.60;100734.68;1696555;84;21177;-85
2021/04/13 00:40:23;;;;;;;33.00;28.97;;;;;;;9.38;62.66;100740.87;1690524;84;21187;-86
2021/04/13 00:42:53;;;;;;;33.07;29.40;;;;;;;9.33;62.76;100732.56;1701592;83;21153;-85
2021/04/13 00:45:29;;;;;;;32.53;28.57;;;;;;;9.30;62.72;100737.70;1663056;83;21147;-84
2021/04/13 00:48:00;;;;;;;32.97;28.07;;;;;;;9.32;62.74;100745.52;1686420;84;21153;-85
2021/04/13 00:50:39;;;;;;;30.43;26.90;;;;;;;9.43;62.45;100739.84;1680962;84;21182;-84
2021/04/13 00:53:11;;;;;;;36.87;28.97;;;;;;;9.57;62.10;100733.47;1695537;83;21207;-85
2021/04/13 00:55:47;;;;;;;33.57;29.80;;;;;;;9.52;62.13;100734.00;1702936;83;21105;-83
2021/04/13 00:58:34;;;;;;;30.80;27.53;;;;;;;9.27;62.24;100702.15;1667988;84;21176;-86
2021/04/13 01:01:12;;;;;;;31.37;26.42;;;;;;;9.46;62.29;100724.05;1694790;83;21063;-85
2021/04/13 01:03:59;;;;;;;30.17;26.90;;;;;;;9.49;62.29;100726.34;1678637;85;21191;-85
2021/04/13 01:06:27;;;;;;;32.20;28.47;;;;;;;9.50;62.24;100726.18;1675495;84;21823;-85
2021/04/13 01:09:24;;;;;;;33.70;28.67;;;;;;;9.47;62.19;100718.53;1653012;84;21209;-85
2021/04/13 01:12:09;;;;;;;30.43;26.53;;;;;;;9.41;62.24;100725.05;1650327;84;21079;-83
2021/04/13 01:14:37;;;;;;;30.53;27.13;;;;;;;9.49;62.26;100726.34;1646368;87;21219;-83
2021/04/13 01:17:08;;;;;;;33.27;28.70;;;;;;;9.56;62.00;100722.00;1650800;86;21358;-84
2021/04/13 01:20:24;;;;;;;40.03;30.50;;;;;;;9.50;62.15;100723.52;1638115;85;21655;-84
2021/04/13 01:25:38;;;;;;;38.37;30.13;;;;;;;9.45;62.30;100717.88;1641318;85;21263;-84
2021/04/13 01:28:15;;;;;;;31.90;28.57;;;;;;;9.38;62.43;100718.73;1685654;84;21219;-86
2021/04/13 01:31:14;;;;;;;34.00;28.85;;;;;;;9.33;62.71;100719.26;1651012;85;21220;-86
2021/04/13 01:33:53;;;;;;;31.33;25.97;;;;;;;9.30;62.83;100719.59;1652445;85;21126;-85
2021/04/13 01:36:26;;;;;;;33.93;30.17;;;;;;;9.38;62.81;100716.92;1640265;86;21174;-83
2021/04/13 01:39:11;;;;;;;35.17;30.73;;;;;;;9.45;62.59;100712.55;1647233;85;21210;-83
2021/04/13 01:44:37;;;;;;;37.27;30.77;;;;;;;9.44;62.66;100712.23;1649238;85;21119;-83
2021/04/13 01:47:08;;;;;;;34.33;30.63;;;;;;;9.49;62.57;100711.71;1681027;84;21329;-83
2021/04/13 01:49:44;;;;;;;38.83;32.57;;;;;;;9.53;62.31;100712.55;1681591;84;21332;-84
2021/04/13 01:54:40;;;;;;;39.25;32.30;;;;;;;9.63;62.15;100707.52;1793628;79;23056;-83
2021/04/13 01:57:19;;;;;;;35.20;31.43;;;;;;;9.52;62.25;100704.22;1762870;79;21090;-84
2021/04/13 01:59:55;;;;;;;47.40;33.23;;;;;;;9.52;62.25;100706.05;1763508;80;21324;-84
2021/04/13 02:02:34;;;;;;;43.33;33.07;;;;;;;9.52;62.32;100716.19;1763994;80;21039;-86
2021/04/13 02:05:09;;;;;;;42.60;32.87;;;;;;;9.54;62.40;100714.70;1763053;80;21149;-89
2021/04/13 02:10:42;;;;;;;40.23;33.67;;;;;;;9.73;62.19;100717.44;1725299;82;21190;-86
2021/04/13 02:13:23;;;;;;;38.30;30.73;;;;;;;9.74;62.12;100721.27;1689367;83;21121;-89
2021/04/13 02:16:00;;;;;;;37.57;32.63;;;;;;;9.75;62.12;100722.91;1682925;84;21224;-90
2021/04/13 02:18:41;;;;;;;37.50;33.60;;;;;;;9.71;62.13;100707.47;1684275;84;21210;-89
2021/04/13 02:21:21;;;;;;;40.00;34.63;;;;;;;9.64;62.44;100706.50;1685971;84;21173;-89
2021/04/13 02:23:55;;;;;;;44.87;34.80;;;;;;;9.51;62.79;100701.24;1675065;84;21187;-87
2021/04/13 02:26:24;;;;;;;37.13;33.10;;;;;;;9.45;62.97;100701.91;1702883;83;21180;-86
2021/04/13 02:28:55;;;;;;;38.33;32.77;;;;;;;9.43;63.02;100700.43;1684574;83;21182;-88
2021/04/13 02:31:47;;;;;;;45.17;32.87;;;;;;;9.52;62.91;100695.41;1667323;84;21194;-89
2021/04/13 02:34:22;;;;;;;44.20;33.70;;;;;;;9.69;62.54;100695.66;1704081;82;21138;-86
2021/04/13 02:36:57;;;;;;;40.03;32.53;;;;;;;9.76;62.44;100702.47;1686653;83;21521;-87
2021/04/13 02:39:30;;;;;;;36.63;32.15;;;;;;;9.77;62.42;100700.11;1716600;83;21342;-88
2021/04/13 02:42:06;;;;;;;39.33;30.50;;;;;;;9.78;62.42;100700.97;1686892;83;21205;-88
2021/04/13 02:44:34;;;;;;;36.53;31.70;;;;;;;9.78;62.39;100704.95;1692970;83;22037;-88
2021/04/13 02:47:07;;;;;;;36.57;30.17;;;;;;;9.77;62.36;100702.77;1694919;83;21669;-88
2021/04/13 02:49:42;;;;;;;39.23;30.77;;;;;;;9.78;62.46;100704.45;1673399;85;21674;-89
2021/04/13 02:52:20;;;;;;;39.40;30.23;;;;;;;9.76;62.37;100695.81;1671298;84;21176;-89
2021/04/13 02:54:56;;;;;;;36.98;32.88;;;;;;;9.74;62.40;100697.31;1671958;85;21342;-88
2021/04/13 02:57:31;;;;;;;37.80;31.70;;;;;;;9.73;62.46;100696.14;1687106;83;21242;-88
2021/04/13 03:00:07;;;;;;;36.70;30.27;;;;;;;9.70;62.51;100693.82;1609202;87;21318;-89
2021/04/13 03:02:48;;;;;;;40.43;29.77;;;;;;;9.75;62.45;100694.95;1632737;86;21186;-89
2021/04/13 03:05:23;;;;;;;35.60;31.63;;;;;;;9.87;62.19;100689.23;1622501;87;21196;-89
2021/04/13 03:07:52;;;;;;;41.87;32.97;;;;;;;9.91;62.16;100696.72;1632343;86;21217;-88
2021/04/13 03:10:32;;;;;;;34.63;30.53;;;;;;;9.86;62.33;100693.74;1634622;86;21335;-89
2021/04/13 03:13:07;;;;;;;36.70;29.87;;;;;;;9.84;62.49;100696.27;1644658;85;21243;-90
2021/04/13 03:15:37;;;;;;;36.17;32.10;;;;;;;9.80;62.51;100697.11;1654339;84;21640;-89
2021/04/13 03:18:16;;;;;;;34.47;30.73;;;;;;;9.77;62.58;100701.44;1655492;85;21171;-89
2021/04/13 03:20:50;;;;;;;40.27;29.67;;;;;;;9.77;62.58;100696.12;1665288;85;21507;-89
2021/04/13 03:23:21;;;;;;;42.73;32.20;;;;;;;9.77;62.57;100700.11;1663074;84;21164;-87
2021/04/13 03:25:59;;;;;;;41.07;32.93;;;;;;;9.74;62.61;100699.15;1666194;84;21667;-88
2021/04/13 03:28:35;;;;;;;37.97;31.50;;;;;;;9.73;62.65;100706.80;1672370;84;21137;-88
2021/04/13 03:31:04;;;;;;;44.90;33.50;;;;;;;9.69;62.79;100703.64;1644899;85;21840;-88
2021/04/13 03:33:36;;;;;;;38.57;31.60;;;;;;;9.76;62.74;100705.13;1642804;84;21116;-89
2021/04/13 03:36:15;;;;;;;44.43;32.83;;;;;;;9.88;62.54;100703.71;1668980;84;21184;-87
2021/04/13 03:38:47;;;;;;;43.73;32.57;;;;;;;9.90;62.54;100699.55;1652960;85;21180;-88
2021/04/13 03:41:18;;;;;;;36.30;31.30;;;;;;;9.83;62.90;100700.77;1664707;84;21164;-87
2021/04/13 03:43:51;;;;;;;36.70;32.20;;;;;;;9.79;63.29;100702.09;1669227;84;21148;-87
2021/04/13 03:46:19;;;;;;;35.80;31.90;;;;;;;9.74;63.22;100701.81;1644628;86;21169;-87
2021/04/13 03:48:49;;;;;;;39.63;33.20;;;;;;;9.70;63.28;100700.00;1644787;86;21189;-87
2021/04/13 03:51:28;;;;;;;40.07;30.87;;;;;;;9.69;63.37;100707.64;1646472;86;21193;-89
2021/04/13 03:54:28;;;;;;;36.33;30.63;;;;;;;9.72;63.54;100711.30;1773262;78;22532;-87
2021/04/13 03:56:56;;;;;;;39.07;32.17;;;;;;;9.64;63.58;100709.16;1717889;81;21289;-88
2021/04/13 03:59:29;;;;;;;41.77;31.13;;;;;;;9.60;63.61;100715.84;1714326;82;21243;-87
2021/04/13 04:01:58;;;;;;;41.73;32.60;;;;;;;9.64;63.57;100713.97;1709426;82;21101;-87
2021/04/13 04:04:37;;;;;;;39.10;32.87;;;;;;;9.75;63.24;100717.58;1732064;81;21744;-87
2021/04/13 04:07:32;;;;;;;42.17;33.23;;;;;;;9.81;63.17;100720.56;1724019;82;21181;-87
2021/04/13 04:09:59;;;;;;;39.43;31.63;;;;;;;9.81;63.19;100714.73;1716852;82;21204;-88
2021/04/13 04:12:33;;;;;;;37.43;30.77;;;;;;;9.62;63.13;100685.88;1730490;82;21163;-88
2021/04/13 04:15:13;;;;;;;42.87;31.50;;;;;;;9.80;63.26;100719.74;1717532;82;21361;-88
2021/04/13 04:17:51;;;;;;;34.63;30.90;;;;;;;9.81;63.40;100717.90;1665889;84;21957;-88
2021/04/13 04:20:35;;;;;;;37.03;31.33;;;;;;;9.80;63.72;100715.75;1659037;85;21244;-88
2021/04/13 04:23:02;;;;;;;36.43;32.57;;;;;;;9.77;63.60;100715.27;1711353;83;21254;-88
2021/04/13 04:25:46;;;;;;;40.10;31.00;;;;;;;9.71;63.73;100722.11;1667163;83;21339;-88
2021/04/13 04:28:26;;;;;;;48.27;32.63;;;;;;;9.69;63.96;100728.11;1706981;83;21212;-88
2021/04/13 04:30:54;;;;;;;39.57;30.90;;;;;;;9.73;63.88;100721.43;1689965;83;21239;-86
2021/04/13 04:33:39;;;;;;;36.93;31.33;;;;;;;9.84;63.60;100726.88;1705060;83;21190;-84
2021/04/13 04:36:29;;;;;;;38.43;32.27;;;;;;;9.86;63.45;100724.87;1668297;83;21342;-84
2021/04/13 04:39:27;;;;;;;40.90;32.37;;;;;;;9.84;63.55;100728.21;1622685;84;21268;-88
2021/04/13 04:41:59;;;;;;;;;;;;;;;9.82;63.62;100725.72;1682234;84;22253;-85
2021/04/13 04:44:30;;;;;;;41.77;30.93;;;;;;;9.83;63.77;100726.54;1645322;84;20342;-86
2021/04/13 04:46:59;;;;;;;40.97;32.60;;;;;;;9.78;63.92;100732.41;1666812;85;21227;-85
2021/04/13 04:49:41;;;;;;;45.73;33.57;;;;;;;9.78;63.85;100731.06;1655412;84;21202;-82
2021/04/13 04:52:09;;;;;;;40.03;33.87;;;;;;;9.79;63.81;100718.07;1664385;84;21255;-81
2021/04/13 04:54:37;;;;;;;42.77;34.17;;;;;;;9.60;63.96;100679.91;1667162;84;21653;-81
2021/04/13 04:57:04;;;;;;;45.37;36.30;;;;;;;9.85;64.00;100714.73;1676164;83;21138;-92
2021/04/13 04:59:34;;;;;;;49.33;36.67;;;;;;;9.96;63.87;100722.81;1675847;83;21238;-87
2021/04/13 05:02:05;;;;;;;44.63;36.37;;;;;;;9.91;64.08;100715.36;1663428;84;21277;-89
2021/04/13 05:04:39;;;;;;;44.73;34.90;;;;;;;9.84;64.29;100710.40;1663731;85;21270;-94
2021/04/13 05:07:09;;;;;;;50.43;34.80;;;;;;;9.82;64.42;100712.41;1624975;86;21248;-84
2021/04/13 05:09:37;;;;;;;38.70;34.33;;;;;;;9.78;64.53;100711.61;1644801;85;21236;-82
2021/04/13 05:12:07;;;;;;;43.30;33.43;;;;;;;9.74;64.78;100707.95;1661634;84;21167;-87
2021/04/13 05:14:35;;;;;;;46.37;32.53;;;;;;;9.71;64.82;100716.27;1657646;85;21246;-83
2021/04/13 05:17:02;;;;;;;49.97;35.50;;;;;;;9.78;64.86;100709.77;1643343;85;21316;-82
2021/04/13 05:19:30;;;;;;;41.53;31.23;;;;;;;9.83;64.71;100706.09;1677840;84;21392;-82
2021/04/13 05:22:00;;;;;;;46.50;35.77;;;;;;;9.82;64.67;100708.41;1679381;84;21184;-83
2021/04/13 05:24:27;;;;;;;40.97;33.43;;;;;;;9.83;64.62;100703.91;1643386;85;21125;-86
2021/04/13 05:26:54;;;;;;;38.27;32.97;;;;;;;9.86;64.54;100704.39;1638008;85;21230;-84
2021/04/13 05:29:22;;;;;;;49.73;36.00;;;;;;;9.88;64.36;100705.05;1639946;85;21719;-83
2021/04/13 05:31:49;;;;;;;35.47;28.50;;;;;;;9.84;64.63;100705.07;1642427;85;21934;-82
2021/04/13 05:34:16;;;;;;;41.73;33.70;;;;;;;9.83;64.85;100706.09;1710211;82;21265;-82
2021/04/13 05:36:44;;;;;;;44.73;35.50;;;;;;;9.92;64.49;100702.36;1740686;81;22491;-85
2021/04/13 05:39:13;;;;;;;48.03;33.07;;;;;;;9.87;64.63;100699.41;1734211;81;21178;-82
2021/04/13 05:41:42;;;;;;;50.80;36.43;;;;;;;9.82;64.77;100696.44;1731372;81;21220;-83
2021/04/13 05:44:09;;;;;;;43.67;37.00;;;;;;;9.69;65.28;100694.84;1746540;80;21667;-82
2021/04/13 05:46:38;;;;;;;48.93;37.70;;;;;;;9.64;65.29;100702.51;1735143;80;21779;-83
2021/04/13 05:49:05;;;;;;;50.27;35.83;;;;;;;9.60;65.51;100694.55;1757835;80;22398;-83
2021/04/13 05:51:33;;;;;;;47.73;37.07;;;;;;;9.62;65.78;100694.69;1758542;80;21155;-87
2021/04/13 05:54:00;;;;;;;49.90;35.87;;;;;;;9.70;65.41;100694.67;1737951;80;21191;-80
2021/04/13 05:56:33;;;;;;;46.80;39.30;;;;;;;9.66;65.61;100693.84;1731354;80;21137;-82
2021/04/13 06:01:36;;;;;;;54.33;37.27;;;;;;;9.61;66.20;100693.05;1750538;78;22340;-81
2021/04/13 06:04:09;;;;;;;42.40;33.20;;;;;;;9.59;65.96;100691.55;1728304;81;21323;-83
2021/04/13 06:06:37;;;;;;;39.50;32.30;;;;;;;9.62;66.26;100697.35;1719874;81;21297;-83
2021/04/13 06:09:06;;;;;;;48.20;36.67;;;;;;;9.76;65.93;100698.47;1710484;81;21131;-85
2021/04/13 06:11:36;;;;;;;52.23;36.13;;;;;;;9.79;65.84;100698.10;1732223;81;21068;-92
2021/04/13 06:14:04;;;;;;;48.00;38.63;;;;;;;9.82;65.90;100700.94;1738251;81;21187;-87
2021/04/13 06:16:38;;;;;;;47.17;36.17;;;;;;;9.85;66.02;100700.09;1729962;83;21174;-83
2021/04/13 06:19:08;;;;;;;58.30;38.97;;;;;;;9.83;66.11;100699.44;1738300;81;21481;-82
2021/04/13 06:21:37;;;;;;;46.93;35.27;;;;;;;9.78;66.48;100701.78;1728909;81;21164;-86
2021/04/13 06:24:05;;;;;;;46.10;35.53;;;;;;;9.80;66.46;100698.45;1739387;81;21084;-83
2021/04/13 06:26:32;;;;;;;47.70;34.93;;;;;;;9.91;66.21;100698.56;1732787;82;21773;-83
2021/04/13 06:29:00;;;;;;;48.77;36.43;;;;;;;10.02;66.24;100706.63;1737607;81;21308;-80
2021/04/13 06:31:29;;;;;;;46.27;34.90;;;;;;;10.03;66.25;100705.64;1724814;81;21176;-86
2021/04/13 06:34:00;;;;;;;49.90;35.63;;;;;;;10.06;66.21;100705.30;1729278;82;21219;-94
2021/04/13 06:36:38;;;;;;;48.33;35.83;;;;;;;10.12;66.08;100711.25;1733536;81;21325;-93
2021/04/13 06:39:25;;;;;;;48.20;33.60;;;;;;;10.23;65.99;100698.86;1766062;79;23175;-94
2021/04/13 06:43:10;;;;;;;;;;;;;;;;;;;;;
2021/04/13 06:46:07;;;;;;;46.07;33.37;;;;;;;10.42;65.71;100702.09;1748443;78;24064;-96
2021/04/13 06:49:17;;;;;;;43.57;32.50;;;;;;;10.42;65.61;100706.91;1655972;86;21174;-96
2021/04/13 06:52:29;;;;;;;39.43;33.43;;;;;;;10.43;65.75;100705.06;1720823;82;21653;-95
2021/04/13 06:55:24;;;;;;;37.07;30.13;;;;;;;10.46;65.81;100707.38;1695033;82;21450;-95
2021/04/13 06:58:53;;;;;;;36.53;30.68;;;;;;;10.42;66.11;100709.57;1723955;82;21619;-93
2021/04/13 07:01:34;;;;;;;44.63;30.63;;;;;;;10.37;66.45;100706.60;1741440;81;21034;-94
2021/04/13 07:04:23;;;;;;;49.33;33.67;;;;;;;10.39;66.79;100709.92;1759298;81;21827;-93
2021/04/13 07:07:05;;;;;;;37.77;31.73;;;;;;;10.41;66.72;100709.74;1760318;81;21291;-92
2021/04/13 07:09:48;;;;;;;43.43;33.37;;;;;;;10.33;67.54;100714.13;1757826;80;21171;-91
2021/04/13 07:12:26;;;;;;;43.53;32.67;;;;;;;10.23;68.40;100720.67;1742757;81;21270;-91
2021/04/13 07:15:21;;;;;;;42.50;32.43;;;;;;;10.19;67.99;100718.02;1723906;83;21342;-90
2021/04/13 07:18:20;;;;;;;45.70;32.05;;;;;;;10.26;68.14;100719.80;1713731;83;21157;-91
2021/04/13 07:23:43;;;;;;;50.43;33.77;;;;;;;10.50;67.64;100713.50;1750062;79;23103;-90
2021/04/13 07:26:44;;;;;;;38.43;32.23;;;;;;;10.49;67.60;100712.34;1714470;82;21256;-91
2021/04/13 07:29:57;;;;;;;35.03;30.47;;;;;;;10.50;67.58;100708.16;1704419;82;21171;-94
2021/04/13 07:32:25;;;;;;;41.47;32.40;;;;;;;10.54;67.76;100707.30;1719293;83;21313;-86
2021/04/13 07:34:57;;;;;;;39.73;30.97;;;;;;;10.60;67.67;100710.58;1694817;83;21110;-85
2021/04/13 07:37:39;;;;;;;37.57;31.80;;;;;;;10.70;67.32;100717.02;1713270;83;21620;-86
2021/04/13 07:40:23;;;;;;;46.33;32.53;;;;;;;10.86;66.85;100717.37;1717185;82;21294;-85
2021/04/13 07:43:15;;;;;;;41.07;32.90;;;;;;;10.96;66.44;100716.59;1699594;82;21635;-85
2021/04/13 07:46:05;;;;;;;44.70;33.17;;;;;;;10.99;66.29;100710.91;1694429;81;21100;-84
2021/04/13 07:49:02;;;;;;;50.70;33.63;;;;;;;10.99;66.07;100712.23;1688220;83;21555;-84
2021/04/13 07:51:38;;;;;;;38.70;32.53;;;;;;;11.00;66.07;100722.39;1695092;83;21636;-85
2021/04/13 07:54:16;;;;;;;;;;;;;;;11.01;66.08;100723.55;1691300;83;21337;-84
2021/04/13 07:56:50;;;;;;;44.10;33.03;;;;;;;11.05;65.96;100722.17;1689437;83;20361;-84
2021/04/13 07:59:50;;;;;;;42.53;32.73;;;;;;;11.04;65.97;100723.72;1695501;83;21136;-84
2021/04/13 08:02:18;;;;;;;43.07;33.83;;;;;;;11.13;65.65;100717.26;1692482;83;21044;-84
2021/04/13 08:04:48;;;;;;;45.37;34.53;;;;;;;11.25;65.28;100719.81;1664262;85;21287;-85
2021/04/13 08:07:30;;;;;;;45.80;35.70;;;;;;;11.29;65.13;100713.09;1634036;86;21217;-85
2021/04/13 08:10:18;;;;;;;56.33;39.43;;;;;;;11.25;65.19;100718.48;1598986;86;21216;-85
2021/04/13 08:13:06;;;;;;;48.20;36.43;;;;;;;11.20;65.26;100720.03;1623259;86;21081;-84
2021/04/13 08:21:31;;;;;;;43.10;35.97;;;;;;;11.19;65.15;100711.21;1847248;75;21344;-87
2021/04/13 08:23:59;;;;;;;47.30;39.57;;;;;;;11.20;65.24;100707.52;1775538;74;21127;-96
2021/04/13 08:26:46;;;;;;;50.07;38.47;;;;;;;11.22;65.20;100706.00;1728450;82;21172;-96
2021/04/13 08:29:51;;;;;;;43.77;34.77;;;;;;;11.35;64.99;100709.38;1750694;80;21181;-96
2021/04/13 08:33:11;;;;;;;51.33;38.87;;;;;;;11.56;64.51;100701.95;1751531;80;21201;-96
2021/04/13 08:36:27;;;;;;;51.50;39.87;;;;;;;11.61;64.37;100700.89;1746564;81;21256;-97
2021/04/13 08:39:26;;;;;;;48.70;38.97;;;;;;;11.64;64.27;100697.83;1746930;81;21655;-88
2021/04/13 08:42:23;;;;;;;50.73;40.30;;;;;;;11.69;63.92;100696.25;1758752;80;21178;-87
2021/04/13 08:45:05;;;;;;;49.38;40.20;;;;;;;11.71;63.77;100701.41;1750929;79;21224;-89
2021/04/13 08:47:47;;;;;;;55.63;42.60;;;;;;;11.73;63.65;100699.38;1671290;82;21314;-90
2021/04/13 08:50:38;;;;;;;45.73;40.73;;;;;;;11.76;63.55;100708.36;1718702;82;21152;-90
2021/04/13 08:53:38;;;;;;;46.43;34.40;;;;;;;11.75;63.42;100698.69;1721438;81;22147;-89
2021/04/13 08:56:16;;;;;;;47.73;37.60;;;;;;;11.68;63.36;100699.95;1712580;80;21156;-89
2021/04/13 08:58:51;;;;;;;55.13;42.57;;;;;;;11.66;63.37;100695.83;1714506;82;21180;-91
2021/04/13 09:01:44;;;;;;;45.07;40.00;;;;;;;11.67;63.46;100692.13;1716999;81;21450;-88
2021/04/13 09:04:28;;;;;;;45.77;37.87;;;;;;;11.56;63.78;100697.42;1722038;81;21141;-90
2021/04/13 09:07:01;;;;;;;39.07;34.87;;;;;;;11.52;63.98;100699.33;1733485;81;21247;-89
2021/04/13 09:09:51;;;;;;;45.67;39.30;;;;;;;11.53;63.93;100700.48;1736425;81;21186;-90
2021/04/13 09:12:30;;;;;;;48.37;39.93;;;;;;;11.50;63.93;100696.33;1706315;79;21173;-91
2021/04/13 09:15:07;;;;;;;44.03;38.33;;;;;;;11.46;64.16;100693.71;1682319;84;21652;-89
2021/04/13 09:17:45;;;;;;;44.73;36.53;;;;;;;11.50;64.13;100690.98;1682985;84;21187;-90
2021/04/13 09:20:43;;;;;;;40.73;36.13;;;;;;;11.74;63.76;100684.20;1780722;79;22859;-89
2021/04/13 09:23:22;;;;;;;42.33;36.00;;;;;;;11.76;63.69;100686.18;1703721;80;21484;-89
2021/04/13 09:26:16;;;;;;;47.60;37.53;;;;;;;11.82;63.41;100687.58;1650517;85;21640;-89
2021/04/13 09:28:53;;;;;;;44.23;37.20;;;;;;;11.86;63.28;100676.83;1648312;85;21437;-89
2021/04/13 09:31:29;;;;;;;44.83;37.27;;;;;;;11.86;63.11;100675.50;1652599;85;21169;-90
2021/04/13 09:34:23;;;;;;;45.13;35.80;;;;;;;11.85;63.20;100673.04;1677736;83;21110;-91
2021/04/13 09:37:15;;;;;;;48.90;38.20;;;;;;;11.28;63.24;100581.17;1679307;84;21653;-89
2021/04/13 09:40:15;;;;;;;42.93;34.33;;;;;;;11.82;63.38;100676.89;1689077;83;21176;-91
2021/04/13 09:42:56;;;;;;;47.27;33.88;;;;;;;11.90;63.16;100665.81;1646458;85;21221;-91
2021/04/13 09:45:31;;;;;;;37.78;33.28;;;;;;;11.72;62.83;100638.17;1641341;83;21235;-88
2021/04/13 09:48:31;;;;;;;45.73;41.08;;;;;;;11.81;63.25;100671.25;1839800;75;28131;-88
2021/04/13 09:51:19;;;;;;;40.28;35.85;;;;;;;11.92;62.77;100669.94;1812765;77;21741;-89
2021/04/13 09:54:30;;;;;;;42.48;36.50;;;;;;;11.90;62.92;100673.83;1767131;79;21146;-93
2021/04/13 09:57:53;;;;;;;44.10;34.90;;;;;;;11.72;63.50;100672.89;1716203;81;21054;-91
2021/04/13 10:00:47;;;;;;;40.63;35.35;;;;;;;11.74;63.65;100682.36;1744277;81;21161;-90
2021/04/13 10:03:56;;;;;;;41.98;36.17;;;;;;;11.80;63.50;100673.59;1737158;81;21193;-87
2021/04/13 10:06:37;;;;;;;41.63;35.38;;;;;;;11.82;63.63;100670.73;1734504;81;21225;-89
2021/04/13 10:09:25;;;;;;;38.88;34.67;;;;;;;11.82;63.40;100665.39;1738979;81;21316;-88
2021/04/13 10:12:25;;;;;;;40.30;34.43;;;;;;;11.75;63.41;100665.81;1734535;81;21070;-88
2021/04/13 10:15:28;;;;;;;45.87;34.10;;;;;;;11.67;63.71;100662.75;1826111;76;24891;-87
2021/04/13 10:22:17;;;;;;;39.20;34.63;;;;;;;11.94;63.45;100659.07;1918554;74;26277;-94
2021/04/13 10:25:53;;;;;;;37.33;30.27;;;;;;;11.93;63.41;100661.44;1835514;76;21155;-95
2021/04/13 10:29:23;;;;;;;38.83;33.50;;;;;;;11.96;63.19;100663.71;1846968;75;21700;-88
2021/04/13 10:32:45;;;;;;;43.45;32.30;;;;;;;11.96;63.20;100665.90;1652118;84;21372;-88
2021/04/13 10:58:33;;;;;;;30.02;27.17;;;;;;;14.44;55.29;100649.34;1794011;79;22691;-87
2021/04/13 11:01:39;;;;;;;30.75;27.58;;;;;;;14.12;56.13;100649.10;1768762;77;22917;-87
2021/04/13 11:08:26;;;;;;;;;;;;;;;;;;;;;
2021/04/13 11:11:45;;;;;;;33.30;29.57;;;;;;;13.35;58.27;100642.58;1786800;78;21771;-89
2021/04/13 11:14:43;;;;;;;30.40;27.25;;;;;;;13.22;58.64;100641.14;1733433;80;21185;-89
2021/04/13 11:17:45;;;;;;;33.30;29.70;;;;;;;13.03;59.29;100644.88;1725146;80;21274;-90
2021/04/13 11:20:57;;;;;;;36.00;29.82;;;;;;;12.84;59.67;100638.88;1731732;80;21174;-90
2021/04/13 11:23:57;;;;;;;34.95;30.40;;;;;;;12.71;59.96;100634.77;1747834;79;21093;-88
2021/04/13 11:27:04;;;;;;;37.15;32.17;;;;;;;12.61;60.37;100634.59;1751895;80;21158;-89
2021/04/13 11:30:15;;;;;;;34.10;30.20;;;;;;;12.55;60.64;100640.73;1750301;81;21532;-89
2021/04/13 11:48:18;;;;;;;;;;;;;;;;;;;;;
2021/04/13 11:51:41;;;;;;;31.10;27.83;;;;;;;12.01;62.64;100643.42;1767878;79;23116;-91
2021/04/13 12:08:38;;;;;;;33.60;28.80;;;;;;;11.75;63.30;100618.56;1813142;75;22408;-87
2021/04/13 12:13:53;;;;;;;37.27;29.43;;;;;;;11.81;63.60;100615.16;1819456;77;23137;-91
2021/04/13 12:16:50;;;;;;;30.37;24.33;;;;;;;11.74;63.81;100615.59;1804700;77;21177;-89
2021/04/13 12:19:19;;;;;;;31.67;28.10;;;;;;;11.81;63.58;100617.83;1801727;78;21221;-91
2021/04/13 12:21:56;;;;;;;35.17;29.70;;;;;;;11.82;63.56;100614.13;1743544;80;21780;-90
2021/04/13 12:24:45;;;;;;;33.00;28.37;;;;;;;11.72;63.80;100603.46;1697774;82;21076;-92
2021/04/13 12:37:52;;;;;;;34.17;27.40;;;;;;;11.60;64.18;100601.28;1817060;77;23108;-92
2021/04/13 12:40:25;;;;;;;33.47;29.33;;;;;;;11.53;64.28;100595.52;1769449;80;21668;-92
2021/04/13 12:43:14;;;;;;;29.23;26.13;;;;;;;11.61;64.34;100599.44;1768206;78;23084;-92
2021/04/13 12:45:50;;;;;;;36.60;27.57;;;;;;;11.60;64.39;100599.09;1688529;82;21476;-93
2021/04/13 12:48:27;;;;;;;30.60;25.47;;;;;;;11.64;64.21;100601.22;1682581;84;21749;-93
2021/04/13 12:51:04;;;;;;;30.92;27.67;;;;;;;11.80;63.88;100597.98;1679254;84;21185;-93
2021/04/13 12:53:35;;;;;;;;;;;;;;;11.81;63.67;100593.80;1679247;84;21150;-92
2021/04/13 12:56:29;;;;;;;32.93;26.53;;;;;;;11.72;63.86;100583.44;1654824;85;20220;-92
2021/04/13 12:59:25;;;;;;;;;;;;;;;;;;;;;
2021/04/13 13:02:38;;;;;;;31.30;27.10;;;;;;;11.56;64.01;100589.30;1823448;76;22968;-91
2021/04/13 13:05:24;;;;;;;30.97;27.17;;;;;;;11.50;64.05;100592.73;1788059;79;21463;-93
2021/04/13 13:07:59;;;;;;;31.05;26.07;;;;;;;11.62;63.78;100577.05;1794794;78;22081;-95
2021/04/13 13:10:39;;;;;;;33.02;27.75;;;;;;;11.68;63.78;100582.47;1816938;75;23010;-93
2021/04/13 13:13:13;;;;;;;32.77;29.17;;;;;;;11.65;63.70;100587.36;1769402;77;21108;-93
2021/04/13 13:15:48;;;;;;;32.00;28.57;;;;;;;11.55;64.15;100572.16;1764936;80;21289;-91
2021/04/13 13:18:21;;;;;;;32.43;25.27;;;;;;;11.55;64.33;100592.19;1778875;80;21171;-93
2021/04/13 13:21:13;;;;;;;31.35;26.37;;;;;;;11.54;64.58;100593.19;1740588;80;21332;-92
2021/04/13 13:23:49;;;;;;;31.37;24.67;;;;;;;11.53;64.91;100591.52;1745568;80;21230;-94
2021/04/13 13:26:26;;;;;;;24.03;21.03;;;;;;;11.52;64.91;100584.03;1745189;81;21195;-91
2021/04/13 13:28:53;;;;;;;25.12;21.20;;;;;;;11.49;65.14;100596.44;1737244;81;21134;-92
2021/04/13 13:31:29;;;;;;;29.42;23.50;;;;;;;11.46;65.98;100588.27;1736549;81;21156;-93
2021/04/13 13:34:21;;;;;;;25.40;22.70;;;;;;;11.44;66.16;100582.30;1733389;81;21253;-91
2021/04/13 13:36:52;;;;;;;26.83;24.00;;;;;;;11.49;66.73;100581.23;1754957;81;21439;-92
2021/04/13 13:39:29;;;;;;;30.97;26.05;;;;;;;11.34;68.43;100593.80;1747695;81;21187;-93
2021/04/13 13:42:17;;;;;;;30.37;24.37;;;;;;;11.21;68.93;100587.78;1796809;77;22796;-92
2021/04/13 13:44:49;;;;;;;27.87;24.43;;;;;;;11.17;69.34;100589.66;1784783;79;21234;-91
2021/04/13 13:47:35;;;;;;;38.40;26.77;;;;;;;11.21;70.08;100585.63;1784610;79;21163;-89
2021/04/13 13:50:36;;;;;;;32.97;26.87;;;;;;;11.13;70.56;100587.05;1755771;80;21173;-90
2021/04/13 13:53:24;;;;;;;30.67;24.57;;;;;;;10.95;71.65;100586.93;1749594;80;21172;-91
2021/04/13 13:56:03;;;;;;;35.90;30.30;;;;;;;10.83;73.36;100589.72;1747342;79;22916;-92
2021/04/13 13:58:35;;;;;;;40.57;31.23;;;;;;;10.74;73.04;100593.00;1712190;81;21480;-91
2021/04/13 14:01:07;;;;;;;38.93;29.73;;;;;;;10.61;74.04;100590.14;1702060;81;21414;-88